sensor_id;sensor_type;location;lat;lon;timestamp;P1;durP1;ratioP1;P2;durP2;ratioP2
22298;SDS011;11317;51.072;17.036;2023-11-21T00:01:58;4.18;;;1.80;;
22298;SDS011;11317;51.072;17.036;2023-11-21T00:04:25;4.43;;;1.80;;
22298;SDS011;11317;51.072;17.036;2023-11-21T00:06:53;4.20;;;2.20;;
22298;SDS011;11317;51.072;17.036;2023-11-21T00:09:19;4.25;;;1.73;;
22298;SDS011;11317;51.072;17.036;2023-11-21T00:11:45;2.28;;;1.35;;
22298;SDS011;11317;51.072;17.036;2023-11-21T00:14:11;6.97;;;1.70;;
22298;SDS011;11317;51.072;17.036;2023-11-21T00:16:40;4.07;;;1.27;;
22298;SDS011;11317;51.072;17.036;2023-11-21T00:19:06;3.53;;;1.52;;
22298;SDS011;11317;51.072;17.036;2023-11-21T00:21:32;3.80;;;1.73;;
22298;SDS011;11317;51.072;17.036;2023-11-21T00:23:58;2.35;;;1.52;;
22298;SDS011;11317;51.072;17.036;2023-11-21T00:26:24;5.20;;;1.80;;
22298;SDS011;11317;51.072;17.036;2023-11-21T00:28:50;3.22;;;1.63;;
22298;SDS011;11317;51.072;17.036;2023-11-21T00:31:16;6.80;;;1.58;;
22298;SDS011;11317;51.072;17.036;2023-11-21T00:33:43;3.33;;;1.65;;
22298;SDS011;11317;51.072;17.036;2023-11-21T00:36:09;2.58;;;1.52;;
22298;SDS011;11317;51.072;17.036;2023-11-21T00:38:36;4.20;;;1.75;;
22298;SDS011;11317;51.072;17.036;2023-11-21T00:41:05;3.17;;;1.73;;
22298;SDS011;11317;51.072;17.036;2023-11-21T00:43:31;3.40;;;2.25;;
22298;SDS011;11317;51.072;17.036;2023-11-21T00:45:58;5.03;;;1.75;;
22298;SDS011;11317;51.072;17.036;2023-11-21T00:48:25;6.82;;;2.10;;
22298;SDS011;11317;51.072;17.036;2023-11-21T00:50:51;9.20;;;1.92;;
22298;SDS011;11317;51.072;17.036;2023-11-21T00:53:17;7.18;;;1.67;;
22298;SDS011;11317;51.072;17.036;2023-11-21T00:55:43;4.60;;;2.22;;
22298;SDS011;11317;51.072;17.036;2023-11-21T00:58:09;5.75;;;1.92;;
22298;SDS011;11317;51.072;17.036;2023-11-21T01:00:36;4.57;;;1.85;;
22298;SDS011;11317;51.072;17.036;2023-11-21T01:03:04;4.47;;;1.80;;
22298;SDS011;11317;51.072;17.036;2023-11-21T01:05:30;8.30;;;2.38;;
22298;SDS011;11317;51.072;17.036;2023-11-21T01:07:56;5.28;;;1.98;;
22298;SDS011;11317;51.072;17.036;2023-11-21T01:10:22;4.95;;;1.88;;
22298;SDS011;11317;51.072;17.036;2023-11-21T01:12:49;5.13;;;1.73;;
22298;SDS011;11317;51.072;17.036;2023-11-21T01:15:16;2.78;;;1.67;;
22298;SDS011;11317;51.072;17.036;2023-11-21T01:17:42;3.08;;;2.13;;
22298;SDS011;11317;51.072;17.036;2023-11-21T01:20:08;8.15;;;2.15;;
22298;SDS011;11317;51.072;17.036;2023-11-21T01:22:38;4.80;;;2.03;;
22298;SDS011;11317;51.072;17.036;2023-11-21T01:25:04;6.65;;;1.88;;
22298;SDS011;11317;51.072;17.036;2023-11-21T01:27:32;4.90;;;2.03;;
22298;SDS011;11317;51.072;17.036;2023-11-21T01:29:59;7.10;;;2.05;;
22298;SDS011;11317;51.072;17.036;2023-11-21T01:32:25;3.40;;;1.92;;
22298;SDS011;11317;51.072;17.036;2023-11-21T01:34:51;3.75;;;1.48;;
22298;SDS011;11317;51.072;17.036;2023-11-21T01:37:17;10.55;;;1.95;;
22298;SDS011;11317;51.072;17.036;2023-11-21T01:39:43;5.38;;;2.15;;
22298;SDS011;11317;51.072;17.036;2023-11-21T01:42:10;3.67;;;1.98;;
22298;SDS011;11317;51.072;17.036;2023-11-21T01:44:38;5.07;;;2.10;;
22298;SDS011;11317;51.072;17.036;2023-11-21T01:47:05;6.38;;;1.83;;
22298;SDS011;11317;51.072;17.036;2023-11-21T01:49:32;3.00;;;1.75;;
22298;SDS011;11317;51.072;17.036;2023-11-21T01:51:58;5.30;;;1.80;;
22298;SDS011;11317;51.072;17.036;2023-11-21T01:54:25;4.40;;;1.73;;
22298;SDS011;11317;51.072;17.036;2023-11-21T01:56:51;3.53;;;1.80;;
22298;SDS011;11317;51.072;17.036;2023-11-21T01:59:18;3.47;;;1.90;;
22298;SDS011;11317;51.072;17.036;2023-11-21T02:01:46;3.72;;;1.90;;
22298;SDS011;11317;51.072;17.036;2023-11-21T02:04:13;3.40;;;2.35;;
22298;SDS011;11317;51.072;17.036;2023-11-21T02:06:39;7.18;;;2.33;;
22298;SDS011;11317;51.072;17.036;2023-11-21T02:09:05;5.53;;;2.22;;
22298;SDS011;11317;51.072;17.036;2023-11-21T02:11:31;4.28;;;2.20;;
22298;SDS011;11317;51.072;17.036;2023-11-21T02:14:00;9.30;;;2.30;;
22298;SDS011;11317;51.072;17.036;2023-11-21T02:16:26;6.63;;;2.42;;
22298;SDS011;11317;51.072;17.036;2023-11-21T02:18:55;4.65;;;2.50;;
22298;SDS011;11317;51.072;17.036;2023-11-21T02:21:22;7.68;;;2.20;;
22298;SDS011;11317;51.072;17.036;2023-11-21T02:23:50;3.35;;;2.58;;
22298;SDS011;11317;51.072;17.036;2023-11-21T02:26:16;4.18;;;1.92;;
22298;SDS011;11317;51.072;17.036;2023-11-21T02:28:42;6.57;;;2.78;;
22298;SDS011;11317;51.072;17.036;2023-11-21T02:31:08;7.10;;;2.47;;
22298;SDS011;11317;51.072;17.036;2023-11-21T02:33:34;3.13;;;1.67;;
22298;SDS011;11317;51.072;17.036;2023-11-21T02:36:00;6.05;;;2.42;;
22298;SDS011;11317;51.072;17.036;2023-11-21T02:38:27;6.57;;;2.35;;
22298;SDS011;11317;51.072;17.036;2023-11-21T02:40:52;5.40;;;1.88;;
22298;SDS011;11317;51.072;17.036;2023-11-21T02:43:18;5.68;;;2.70;;
22298;SDS011;11317;51.072;17.036;2023-11-21T02:45:44;4.68;;;2.55;;
22298;SDS011;11317;51.072;17.036;2023-11-21T02:48:10;2.75;;;1.85;;
22298;SDS011;11317;51.072;17.036;2023-11-21T02:50:37;6.63;;;2.42;;
22298;SDS011;11317;51.072;17.036;2023-11-21T02:53:03;4.28;;;1.83;;
22298;SDS011;11317;51.072;17.036;2023-11-21T02:55:31;4.10;;;2.03;;
22298;SDS011;11317;51.072;17.036;2023-11-21T02:58:00;3.05;;;2.13;;
22298;SDS011;11317;51.072;17.036;2023-11-21T03:00:26;4.63;;;2.90;;
22298;SDS011;11317;51.072;17.036;2023-11-21T03:02:52;4.88;;;2.47;;
22298;SDS011;11317;51.072;17.036;2023-11-21T03:05:20;6.18;;;2.33;;
22298;SDS011;11317;51.072;17.036;2023-11-21T03:07:46;9.35;;;2.95;;
22298;SDS011;11317;51.072;17.036;2023-11-21T03:10:12;9.43;;;2.60;;
22298;SDS011;11317;51.072;17.036;2023-11-21T03:12:39;7.18;;;2.78;;
22298;SDS011;11317;51.072;17.036;2023-11-21T03:15:05;5.53;;;2.83;;
22298;SDS011;11317;51.072;17.036;2023-11-21T03:17:32;6.00;;;2.63;;
22298;SDS011;11317;51.072;17.036;2023-11-21T03:20:02;7.13;;;2.95;;
22298;SDS011;11317;51.072;17.036;2023-11-21T03:22:29;3.85;;;2.38;;
22298;SDS011;11317;51.072;17.036;2023-11-21T03:24:55;9.07;;;2.95;;
22298;SDS011;11317;51.072;17.036;2023-11-21T03:27:21;6.30;;;2.53;;
22298;SDS011;11317;51.072;17.036;2023-11-21T03:29:48;6.25;;;2.63;;
22298;SDS011;11317;51.072;17.036;2023-11-21T03:32:14;7.03;;;2.72;;
22298;SDS011;11317;51.072;17.036;2023-11-21T03:34:53;4.82;;;2.58;;
22298;SDS011;11317;51.072;17.036;2023-11-21T03:37:23;4.18;;;2.33;;
22298;SDS011;11317;51.072;17.036;2023-11-21T03:39:50;3.63;;;2.08;;
22298;SDS011;11317;51.072;17.036;2023-11-21T03:42:16;6.25;;;2.60;;
22298;SDS011;11317;51.072;17.036;2023-11-21T03:44:42;4.28;;;2.63;;
22298;SDS011;11317;51.072;17.036;2023-11-21T03:47:08;8.52;;;3.00;;
22298;SDS011;11317;51.072;17.036;2023-11-21T03:49:34;7.22;;;2.67;;
22298;SDS011;11317;51.072;17.036;2023-11-21T03:52:01;7.97;;;2.95;;
22298;SDS011;11317;51.072;17.036;2023-11-21T03:54:27;7.22;;;2.72;;
22298;SDS011;11317;51.072;17.036;2023-11-21T03:56:53;8.00;;;2.50;;
22298;SDS011;11317;51.072;17.036;2023-11-21T03:59:19;9.68;;;2.63;;
22298;SDS011;11317;51.072;17.036;2023-11-21T04:01:45;4.63;;;2.15;;
22298;SDS011;11317;51.072;17.036;2023-11-21T04:04:11;4.82;;;2.60;;
22298;SDS011;11317;51.072;17.036;2023-11-21T04:06:37;8.57;;;2.78;;
22298;SDS011;11317;51.072;17.036;2023-11-21T04:09:03;5.43;;;2.70;;
22298;SDS011;11317;51.072;17.036;2023-11-21T04:11:32;3.25;;;2.38;;
22298;SDS011;11317;51.072;17.036;2023-11-21T04:13:57;7.43;;;2.60;;
22298;SDS011;11317;51.072;17.036;2023-11-21T04:16:24;7.05;;;2.67;;
22298;SDS011;11317;51.072;17.036;2023-11-21T04:18:50;6.88;;;3.10;;
22298;SDS011;11317;51.072;17.036;2023-11-21T04:21:16;5.95;;;2.63;;
22298;SDS011;11317;51.072;17.036;2023-11-21T04:23:42;6.78;;;2.85;;
22298;SDS011;11317;51.072;17.036;2023-11-21T04:26:08;12.05;;;2.88;;
22298;SDS011;11317;51.072;17.036;2023-11-21T04:28:34;6.75;;;2.67;;
22298;SDS011;11317;51.072;17.036;2023-11-21T04:31:00;4.82;;;2.50;;
22298;SDS011;11317;51.072;17.036;2023-11-21T04:33:26;5.38;;;2.63;;
22298;SDS011;11317;51.072;17.036;2023-11-21T04:35:52;4.28;;;2.42;;
22298;SDS011;11317;51.072;17.036;2023-11-21T04:38:18;4.00;;;2.75;;
22298;SDS011;11317;51.072;17.036;2023-11-21T04:40:44;6.05;;;2.95;;
22298;SDS011;11317;51.072;17.036;2023-11-21T04:43:10;7.88;;;3.05;;
22298;SDS011;11317;51.072;17.036;2023-11-21T04:45:37;5.15;;;2.80;;
22298;SDS011;11317;51.072;17.036;2023-11-21T04:48:03;3.70;;;2.38;;
22298;SDS011;11317;51.072;17.036;2023-11-21T04:50:30;6.90;;;3.10;;
22298;SDS011;11317;51.072;17.036;2023-11-21T04:52:56;6.18;;;2.35;;
22298;SDS011;11317;51.072;17.036;2023-11-21T04:55:22;5.03;;;3.03;;
22298;SDS011;11317;51.072;17.036;2023-11-21T04:57:48;7.72;;;2.42;;
22298;SDS011;11317;51.072;17.036;2023-11-21T05:00:15;5.00;;;2.42;;
22298;SDS011;11317;51.072;17.036;2023-11-21T05:02:41;5.00;;;2.85;;
22298;SDS011;11317;51.072;17.036;2023-11-21T05:05:08;5.28;;;2.92;;
22298;SDS011;11317;51.072;17.036;2023-11-21T05:07:35;6.90;;;3.00;;
22298;SDS011;11317;51.072;17.036;2023-11-21T05:10:03;6.28;;;3.17;;
22298;SDS011;11317;51.072;17.036;2023-11-21T05:12:33;6.07;;;2.88;;
22298;SDS011;11317;51.072;17.036;2023-11-21T05:15:03;5.93;;;3.03;;
22298;SDS011;11317;51.072;17.036;2023-11-21T05:17:34;5.22;;;3.28;;
22298;SDS011;11317;51.072;17.036;2023-11-21T05:20:01;5.47;;;3.13;;
22298;SDS011;11317;51.072;17.036;2023-11-21T05:22:29;9.15;;;3.47;;
22298;SDS011;11317;51.072;17.036;2023-11-21T05:24:55;5.10;;;3.08;;
22298;SDS011;11317;51.072;17.036;2023-11-21T05:27:21;7.20;;;3.22;;
22298;SDS011;11317;51.072;17.036;2023-11-21T05:29:47;5.72;;;3.45;;
22298;SDS011;11317;51.072;17.036;2023-11-21T05:32:12;6.13;;;3.35;;
22298;SDS011;11317;51.072;17.036;2023-11-21T05:34:38;8.50;;;3.08;;
22298;SDS011;11317;51.072;17.036;2023-11-21T05:37:04;9.45;;;3.85;;
22298;SDS011;11317;51.072;17.036;2023-11-21T05:39:30;12.65;;;3.80;;
22298;SDS011;11317;51.072;17.036;2023-11-21T05:41:57;4.85;;;2.72;;
22298;SDS011;11317;51.072;17.036;2023-11-21T05:44:24;5.00;;;2.75;;
22298;SDS011;11317;51.072;17.036;2023-11-21T05:46:50;7.05;;;3.40;;
22298;SDS011;11317;51.072;17.036;2023-11-21T05:49:16;6.72;;;3.17;;
22298;SDS011;11317;51.072;17.036;2023-11-21T05:51:42;8.50;;;3.40;;
22298;SDS011;11317;51.072;17.036;2023-11-21T05:54:08;8.32;;;3.35;;
22298;SDS011;11317;51.072;17.036;2023-11-21T05:56:34;6.38;;;3.03;;
22298;SDS011;11317;51.072;17.036;2023-11-21T05:59:00;7.90;;;3.08;;
22298;SDS011;11317;51.072;17.036;2023-11-21T06:01:27;7.55;;;3.88;;
22298;SDS011;11317;51.072;17.036;2023-11-21T06:03:53;12.02;;;3.72;;
22298;SDS011;11317;51.072;17.036;2023-11-21T06:06:20;8.80;;;3.65;;
22298;SDS011;11317;51.072;17.036;2023-11-21T06:08:48;8.93;;;4.18;;
22298;SDS011;11317;51.072;17.036;2023-11-21T06:11:14;6.80;;;4.07;;
22298;SDS011;11317;51.072;17.036;2023-11-21T06:13:41;8.45;;;3.25;;
22298;SDS011;11317;51.072;17.036;2023-11-21T06:16:07;6.35;;;3.33;;
22298;SDS011;11317;51.072;17.036;2023-11-21T06:18:34;11.77;;;4.00;;
22298;SDS011;11317;51.072;17.036;2023-11-21T06:21:00;8.23;;;3.92;;
22298;SDS011;11317;51.072;17.036;2023-11-21T06:23:26;6.43;;;3.25;;
22298;SDS011;11317;51.072;17.036;2023-11-21T06:25:52;6.80;;;3.75;;
22298;SDS011;11317;51.072;17.036;2023-11-21T06:28:18;8.27;;;3.55;;
22298;SDS011;11317;51.072;17.036;2023-11-21T06:30:44;6.90;;;3.50;;
22298;SDS011;11317;51.072;17.036;2023-11-21T06:33:11;7.53;;;3.70;;
22298;SDS011;11317;51.072;17.036;2023-11-21T06:35:37;9.65;;;3.65;;
22298;SDS011;11317;51.072;17.036;2023-11-21T06:38:03;9.10;;;3.47;;
22298;SDS011;11317;51.072;17.036;2023-11-21T06:40:29;5.68;;;3.30;;
22298;SDS011;11317;51.072;17.036;2023-11-21T06:42:55;6.78;;;3.50;;
22298;SDS011;11317;51.072;17.036;2023-11-21T06:45:23;6.95;;;3.38;;
22298;SDS011;11317;51.072;17.036;2023-11-21T06:47:49;4.57;;;3.20;;
22298;SDS011;11317;51.072;17.036;2023-11-21T06:50:16;13.98;;;4.00;;
22298;SDS011;11317;51.072;17.036;2023-11-21T06:52:42;6.57;;;3.30;;
22298;SDS011;11317;51.072;17.036;2023-11-21T06:55:08;7.60;;;3.17;;
22298;SDS011;11317;51.072;17.036;2023-11-21T06:57:35;9.10;;;3.35;;
22298;SDS011;11317;51.072;17.036;2023-11-21T07:00:01;7.85;;;3.75;;
22298;SDS011;11317;51.072;17.036;2023-11-21T07:02:27;8.27;;;3.88;;
22298;SDS011;11317;51.072;17.036;2023-11-21T07:04:54;7.95;;;3.33;;
22298;SDS011;11317;51.072;17.036;2023-11-21T07:07:20;7.25;;;3.88;;
22298;SDS011;11317;51.072;17.036;2023-11-21T07:09:46;5.70;;;3.40;;
22298;SDS011;11317;51.072;17.036;2023-11-21T07:12:13;9.57;;;3.97;;
22298;SDS011;11317;51.072;17.036;2023-11-21T07:14:39;8.85;;;4.13;;
22298;SDS011;11317;51.072;17.036;2023-11-21T07:17:08;10.55;;;3.95;;
22298;SDS011;11317;51.072;17.036;2023-11-21T07:19:34;8.95;;;3.88;;
22298;SDS011;11317;51.072;17.036;2023-11-21T07:22:01;8.32;;;2.92;;
22298;SDS011;11317;51.072;17.036;2023-11-21T07:24:26;7.35;;;3.55;;
22298;SDS011;11317;51.072;17.036;2023-11-21T07:26:52;10.45;;;3.92;;
22298;SDS011;11317;51.072;17.036;2023-11-21T07:29:22;9.30;;;3.42;;
22298;SDS011;11317;51.072;17.036;2023-11-21T07:31:50;10.52;;;4.32;;
22298;SDS011;11317;51.072;17.036;2023-11-21T07:34:17;7.20;;;3.20;;
22298;SDS011;11317;51.072;17.036;2023-11-21T07:36:43;7.22;;;3.42;;
22298;SDS011;11317;51.072;17.036;2023-11-21T07:39:09;7.07;;;3.58;;
22298;SDS011;11317;51.072;17.036;2023-11-21T07:41:35;5.15;;;3.25;;
22298;SDS011;11317;51.072;17.036;2023-11-21T07:44:03;8.13;;;4.32;;
22298;SDS011;11317;51.072;17.036;2023-11-21T07:46:29;9.20;;;4.20;;
22298;SDS011;11317;51.072;17.036;2023-11-21T07:48:55;8.88;;;3.83;;
22298;SDS011;11317;51.072;17.036;2023-11-21T07:51:21;8.55;;;3.40;;
22298;SDS011;11317;51.072;17.036;2023-11-21T07:53:47;9.35;;;4.13;;
22298;SDS011;11317;51.072;17.036;2023-11-21T07:56:14;7.43;;;4.25;;
22298;SDS011;11317;51.072;17.036;2023-11-21T07:58:40;6.60;;;3.38;;
22298;SDS011;11317;51.072;17.036;2023-11-21T08:01:06;6.82;;;3.72;;
22298;SDS011;11317;51.072;17.036;2023-11-21T08:03:33;5.30;;;3.38;;
22298;SDS011;11317;51.072;17.036;2023-11-21T08:05:59;9.80;;;3.70;;
22298;SDS011;11317;51.072;17.036;2023-11-21T08:08:25;13.05;;;4.13;;
22298;SDS011;11317;51.072;17.036;2023-11-21T08:10:51;5.75;;;3.75;;
22298;SDS011;11317;51.072;17.036;2023-11-21T08:13:26;7.38;;;3.38;;
22298;SDS011;11317;51.072;17.036;2023-11-21T08:15:54;8.50;;;3.45;;
22298;SDS011;11317;51.072;17.036;2023-11-21T08:18:21;10.93;;;3.92;;
22298;SDS011;11317;51.072;17.036;2023-11-21T08:20:48;8.85;;;3.67;;
22298;SDS011;11317;51.072;17.036;2023-11-21T08:23:16;7.97;;;3.70;;
22298;SDS011;11317;51.072;17.036;2023-11-21T08:25:43;12.13;;;3.58;;
22298;SDS011;11317;51.072;17.036;2023-11-21T08:28:09;9.75;;;3.75;;
22298;SDS011;11317;51.072;17.036;2023-11-21T08:30:35;9.75;;;4.28;;
22298;SDS011;11317;51.072;17.036;2023-11-21T08:33:01;6.00;;;3.65;;
22298;SDS011;11317;51.072;17.036;2023-11-21T08:35:28;11.55;;;3.97;;
22298;SDS011;11317;51.072;17.036;2023-11-21T08:37:55;10.52;;;3.75;;
22298;SDS011;11317;51.072;17.036;2023-11-21T08:40:22;6.72;;;3.88;;
22298;SDS011;11317;51.072;17.036;2023-11-21T08:42:48;11.57;;;3.55;;
22298;SDS011;11317;51.072;17.036;2023-11-21T08:45:17;11.13;;;4.38;;
22298;SDS011;11317;51.072;17.036;2023-11-21T08:47:43;10.52;;;3.53;;
22298;SDS011;11317;51.072;17.036;2023-11-21T08:50:09;10.27;;;3.47;;
22298;SDS011;11317;51.072;17.036;2023-11-21T08:52:37;5.88;;;3.30;;
22298;SDS011;11317;51.072;17.036;2023-11-21T08:55:04;10.15;;;3.95;;
22298;SDS011;11317;51.072;17.036;2023-11-21T08:57:34;9.30;;;3.92;;
22298;SDS011;11317;51.072;17.036;2023-11-21T09:00:01;12.60;;;4.60;;
22298;SDS011;11317;51.072;17.036;2023-11-21T09:02:27;6.78;;;3.58;;
22298;SDS011;11317;51.072;17.036;2023-11-21T09:04:53;5.82;;;3.47;;
22298;SDS011;11317;51.072;17.036;2023-11-21T09:07:19;7.25;;;3.72;;
22298;SDS011;11317;51.072;17.036;2023-11-21T09:09:48;4.93;;;3.05;;
22298;SDS011;11317;51.072;17.036;2023-11-21T09:12:14;6.95;;;3.65;;
22298;SDS011;11317;51.072;17.036;2023-11-21T09:14:41;7.43;;;3.72;;
22298;SDS011;11317;51.072;17.036;2023-11-21T09:17:08;16.63;;;3.80;;
22298;SDS011;11317;51.072;17.036;2023-11-21T09:19:38;7.13;;;3.90;;
22298;SDS011;11317;51.072;17.036;2023-11-21T09:22:04;7.15;;;3.55;;
22298;SDS011;11317;51.072;17.036;2023-11-21T09:24:30;5.20;;;2.95;;
22298;SDS011;11317;51.072;17.036;2023-11-21T09:26:57;7.60;;;3.67;;
22298;SDS011;11317;51.072;17.036;2023-11-21T09:29:25;8.30;;;3.50;;
22298;SDS011;11317;51.072;17.036;2023-11-21T09:31:51;15.60;;;4.45;;
22298;SDS011;11317;51.072;17.036;2023-11-21T09:34:19;11.05;;;3.58;;
22298;SDS011;11317;51.072;17.036;2023-11-21T09:36:46;7.53;;;4.25;;
22298;SDS011;11317;51.072;17.036;2023-11-21T09:39:12;9.73;;;3.78;;
22298;SDS011;11317;51.072;17.036;2023-11-21T09:44:09;8.13;;;3.55;;
22298;SDS011;11317;51.072;17.036;2023-11-21T09:46:42;11.20;;;4.55;;
22298;SDS011;11317;51.072;17.036;2023-11-21T09:49:11;13.20;;;4.57;;
22298;SDS011;11317;51.072;17.036;2023-11-21T09:51:39;6.78;;;3.55;;
22298;SDS011;11317;51.072;17.036;2023-11-21T09:54:09;5.68;;;3.63;;
22298;SDS011;11317;51.072;17.036;2023-11-21T09:56:39;7.60;;;3.70;;
22298;SDS011;11317;51.072;17.036;2023-11-21T09:59:05;11.07;;;4.43;;
22298;SDS011;11317;51.072;17.036;2023-11-21T10:01:35;6.35;;;3.60;;
22298;SDS011;11317;51.072;17.036;2023-11-21T10:04:02;8.40;;;4.45;;
22298;SDS011;11317;51.072;17.036;2023-11-21T10:06:30;6.82;;;3.45;;
22298;SDS011;11317;51.072;17.036;2023-11-21T10:08:57;9.60;;;4.05;;
22298;SDS011;11317;51.072;17.036;2023-11-21T10:11:25;6.60;;;3.97;;
22298;SDS011;11317;51.072;17.036;2023-11-21T10:13:55;10.73;;;4.60;;
22298;SDS011;11317;51.072;17.036;2023-11-21T10:16:25;5.82;;;3.70;;
22298;SDS011;11317;51.072;17.036;2023-11-21T10:18:52;6.05;;;3.75;;
22298;SDS011;11317;51.072;17.036;2023-11-21T10:21:20;8.60;;;4.13;;
22298;SDS011;11317;51.072;17.036;2023-11-21T10:23:47;6.88;;;3.88;;
22298;SDS011;11317;51.072;17.036;2023-11-21T10:26:13;7.57;;;4.13;;
22298;SDS011;11317;51.072;17.036;2023-11-21T10:28:55;10.45;;;4.88;;
22298;SDS011;11317;51.072;17.036;2023-11-21T10:31:23;8.38;;;4.18;;
22298;SDS011;11317;51.072;17.036;2023-11-21T10:33:52;6.13;;;3.85;;
22298;SDS011;11317;51.072;17.036;2023-11-21T10:36:25;5.75;;;4.10;;
22298;SDS011;11317;51.072;17.036;2023-11-21T10:38:52;6.55;;;3.88;;
22298;SDS011;11317;51.072;17.036;2023-11-21T10:41:19;9.38;;;4.20;;
22298;SDS011;11317;51.072;17.036;2023-11-21T10:43:45;8.95;;;4.60;;
22298;SDS011;11317;51.072;17.036;2023-11-21T10:46:11;8.23;;;3.70;;
22298;SDS011;11317;51.072;17.036;2023-11-21T10:48:38;7.10;;;3.72;;
22298;SDS011;11317;51.072;17.036;2023-11-21T10:51:09;7.90;;;4.63;;
22298;SDS011;11317;51.072;17.036;2023-11-21T10:53:42;10.60;;;5.15;;
22298;SDS011;11317;51.072;17.036;2023-11-21T10:56:08;8.93;;;4.57;;
22298;SDS011;11317;51.072;17.036;2023-11-21T10:58:37;7.53;;;3.95;;
22298;SDS011;11317;51.072;17.036;2023-11-21T11:01:05;5.05;;;3.72;;
22298;SDS011;11317;51.072;17.036;2023-11-21T11:03:32;5.30;;;3.65;;
22298;SDS011;11317;51.072;17.036;2023-11-21T11:06:02;10.65;;;3.80;;
22298;SDS011;11317;51.072;17.036;2023-11-21T11:08:36;11.60;;;5.00;;
22298;SDS011;11317;51.072;17.036;2023-11-21T11:11:04;11.55;;;5.90;;
22298;SDS011;11317;51.072;17.036;2023-11-21T11:13:31;12.00;;;6.07;;
22298;SDS011;11317;51.072;17.036;2023-11-21T11:16:00;12.73;;;6.50;;
22298;SDS011;11317;51.072;17.036;2023-11-21T11:18:29;17.92;;;8.18;;
22298;SDS011;11317;51.072;17.036;2023-11-21T11:21:01;18.02;;;7.97;;
22298;SDS011;11317;51.072;17.036;2023-11-21T11:32:11;16.35;;;8.25;;
22298;SDS011;11317;51.072;17.036;2023-11-21T11:34:53;21.60;;;9.65;;
22298;SDS011;11317;51.072;17.036;2023-11-21T11:37:26;21.00;;;10.07;;
22298;SDS011;11317;51.072;17.036;2023-11-21T11:39:52;22.75;;;9.77;;
22298;SDS011;11317;51.072;17.036;2023-11-21T11:42:19;25.45;;;10.93;;
22298;SDS011;11317;51.072;17.036;2023-11-21T11:44:49;22.15;;;9.93;;
22298;SDS011;11317;51.072;17.036;2023-11-21T11:50:02;19.42;;;9.88;;
22298;SDS011;11317;51.072;17.036;2023-11-21T11:55:16;20.52;;;9.23;;
22298;SDS011;11317;51.072;17.036;2023-11-21T12:03:01;18.45;;;7.38;;
22298;SDS011;11317;51.072;17.036;2023-11-21T12:05:28;20.58;;;9.70;;
22298;SDS011;11317;51.072;17.036;2023-11-21T12:08:01;14.90;;;8.07;;
22298;SDS011;11317;51.072;17.036;2023-11-21T12:10:32;15.82;;;8.15;;
22298;SDS011;11317;51.072;17.036;2023-11-21T12:13:02;16.48;;;8.00;;
22298;SDS011;11317;51.072;17.036;2023-11-21T12:15:32;15.15;;;7.93;;
22298;SDS011;11317;51.072;17.036;2023-11-21T12:17:58;23.48;;;8.05;;
22298;SDS011;11317;51.072;17.036;2023-11-21T12:20:25;19.33;;;8.40;;
22298;SDS011;11317;51.072;17.036;2023-11-21T12:22:53;18.25;;;8.40;;
22298;SDS011;11317;51.072;17.036;2023-11-21T12:25:20;18.42;;;7.75;;
22298;SDS011;11317;51.072;17.036;2023-11-21T12:27:48;15.48;;;7.25;;
22298;SDS011;11317;51.072;17.036;2023-11-21T12:30:15;19.23;;;7.68;;
22298;SDS011;11317;51.072;17.036;2023-11-21T12:32:43;14.10;;;7.35;;
22298;SDS011;11317;51.072;17.036;2023-11-21T12:35:11;14.75;;;7.13;;
22298;SDS011;11317;51.072;17.036;2023-11-21T12:37:38;14.00;;;7.43;;
22298;SDS011;11317;51.072;17.036;2023-11-21T12:40:09;18.02;;;7.60;;
22298;SDS011;11317;51.072;17.036;2023-11-21T12:42:47;16.17;;;7.90;;
22298;SDS011;11317;51.072;17.036;2023-11-21T12:47:43;16.65;;;7.75;;
22298;SDS011;11317;51.072;17.036;2023-11-21T12:50:13;12.65;;;6.55;;
22298;SDS011;11317;51.072;17.036;2023-11-21T12:52:44;17.30;;;7.25;;
22298;SDS011;11317;51.072;17.036;2023-11-21T12:55:19;16.20;;;7.10;;
22298;SDS011;11317;51.072;17.036;2023-11-21T12:57:49;11.13;;;6.00;;
22298;SDS011;11317;51.072;17.036;2023-11-21T13:00:18;15.88;;;6.65;;
22298;SDS011;11317;51.072;17.036;2023-11-21T13:02:57;14.85;;;5.97;;
22298;SDS011;11317;51.072;17.036;2023-11-21T13:05:24;10.85;;;5.97;;
22298;SDS011;11317;51.072;17.036;2023-11-21T13:07:50;12.45;;;5.55;;
22298;SDS011;11317;51.072;17.036;2023-11-21T13:10:19;9.43;;;5.35;;
22298;SDS011;11317;51.072;17.036;2023-11-21T13:12:50;9.77;;;5.63;;
22298;SDS011;11317;51.072;17.036;2023-11-21T13:15:17;12.73;;;6.18;;
22298;SDS011;11317;51.072;17.036;2023-11-21T13:17:43;9.35;;;5.43;;
22298;SDS011;11317;51.072;17.036;2023-11-21T13:20:10;8.88;;;6.00;;
22298;SDS011;11317;51.072;17.036;2023-11-21T13:25:14;9.82;;;6.05;;
22298;SDS011;11317;51.072;17.036;2023-11-21T13:27:45;10.73;;;5.97;;
22298;SDS011;11317;51.072;17.036;2023-11-21T13:30:12;9.45;;;5.03;;
22298;SDS011;11317;51.072;17.036;2023-11-21T13:32:44;9.98;;;4.90;;
22298;SDS011;11317;51.072;17.036;2023-11-21T13:35:16;8.77;;;5.00;;
22298;SDS011;11317;51.072;17.036;2023-11-21T13:37:51;6.80;;;4.50;;
22298;SDS011;11317;51.072;17.036;2023-11-21T13:40:21;8.50;;;3.95;;
22298;SDS011;11317;51.072;17.036;2023-11-21T13:42:52;7.35;;;3.40;;
22298;SDS011;11317;51.072;17.036;2023-11-21T13:45:22;6.50;;;3.55;;
22298;SDS011;11317;51.072;17.036;2023-11-21T13:47:52;7.15;;;3.85;;
22298;SDS011;11317;51.072;17.036;2023-11-21T13:50:23;7.65;;;4.05;;
22298;SDS011;11317;51.072;17.036;2023-11-21T13:52:54;7.93;;;3.97;;
22298;SDS011;11317;51.072;17.036;2023-11-21T13:55:20;6.80;;;3.83;;
22298;SDS011;11317;51.072;17.036;2023-11-21T13:57:49;7.45;;;4.10;;
22298;SDS011;11317;51.072;17.036;2023-11-21T14:00:17;10.25;;;3.80;;
22298;SDS011;11317;51.072;17.036;2023-11-21T14:03:08;11.30;;;5.15;;
22298;SDS011;11317;51.072;17.036;2023-11-21T14:05:42;7.18;;;3.92;;
22298;SDS011;11317;51.072;17.036;2023-11-21T14:08:09;6.60;;;4.35;;
22298;SDS011;11317;51.072;17.036;2023-11-21T14:10:38;7.63;;;4.72;;
22298;SDS011;11317;51.072;17.036;2023-11-21T14:13:15;9.43;;;5.03;;
22298;SDS011;11317;51.072;17.036;2023-11-21T14:15:42;6.72;;;3.63;;
22298;SDS011;11317;51.072;17.036;2023-11-21T14:18:11;6.75;;;3.63;;
22298;SDS011;11317;51.072;17.036;2023-11-21T14:20:42;11.05;;;3.75;;
22298;SDS011;11317;51.072;17.036;2023-11-21T14:23:10;4.07;;;2.83;;
22298;SDS011;11317;51.072;17.036;2023-11-21T14:25:37;4.07;;;2.97;;
22298;SDS011;11317;51.072;17.036;2023-11-21T14:28:04;5.45;;;3.63;;
22298;SDS011;11317;51.072;17.036;2023-11-21T14:30:33;5.30;;;3.15;;
22298;SDS011;11317;51.072;17.036;2023-11-21T14:33:01;5.75;;;3.63;;
22298;SDS011;11317;51.072;17.036;2023-11-21T14:35:28;6.65;;;3.28;;
22298;SDS011;11317;51.072;17.036;2023-11-21T14:37:59;6.15;;;3.95;;
22298;SDS011;11317;51.072;17.036;2023-11-21T14:40:26;7.07;;;3.78;;
22298;SDS011;11317;51.072;17.036;2023-11-21T14:42:57;5.35;;;3.47;;
22298;SDS011;11317;51.072;17.036;2023-11-21T14:45:23;6.57;;;3.70;;
22298;SDS011;11317;51.072;17.036;2023-11-21T14:47:51;7.93;;;4.60;;
22298;SDS011;11317;51.072;17.036;2023-11-21T14:50:36;5.05;;;3.63;;
22298;SDS011;11317;51.072;17.036;2023-11-21T14:53:11;5.65;;;3.75;;
22298;SDS011;11317;51.072;17.036;2023-11-21T14:55:38;4.72;;;3.53;;
22298;SDS011;11317;51.072;17.036;2023-11-21T14:58:17;4.22;;;2.97;;
22298;SDS011;11317;51.072;17.036;2023-11-21T15:00:56;7.88;;;4.18;;